sensor_id;sensor_type;location;lat;lon;timestamp;temperature;humidity
49711;DHT22;35602;44.534;18.696;2022-11-15T00:04:58;21.20;53.30
49711;DHT22;35602;44.534;18.696;2022-11-15T00:09:59;21.20;53.30
49711;DHT22;35602;44.534;18.696;2022-11-15T00:14:59;21.20;53.30
49711;DHT22;35602;44.534;18.696;2022-11-15T00:20:00;21.20;53.50
49711;DHT22;35602;44.534;18.696;2022-11-15T00:25:01;21.20;53.40
49711;DHT22;35602;44.534;18.696;2022-11-15T00:30:02;21.20;53.40
49711;DHT22;35602;44.534;18.696;2022-11-15T00:35:04;21.20;53.40
49711;DHT22;35602;44.534;18.696;2022-11-15T00:40:06;21.20;53.40
49711;DHT22;35602;44.534;18.696;2022-11-15T00:45:08;21.20;54.00
49711;DHT22;35602;44.534;18.696;2022-11-15T00:50:09;21.20;53.40
49711;DHT22;35602;44.534;18.696;2022-11-15T00:55:15;21.20;53.40
49711;DHT22;35602;44.534;18.696;2022-11-15T01:00:17;21.20;53.40
49711;DHT22;35602;44.534;18.696;2022-11-15T01:05:17;21.20;53.40
49711;DHT22;35602;44.534;18.696;2022-11-15T01:10:18;21.20;53.50
49711;DHT22;35602;44.534;18.696;2022-11-15T01:15:19;21.20;53.40
49711;DHT22;35602;44.534;18.696;2022-11-15T01:20:20;21.20;53.40
49711;DHT22;35602;44.534;18.696;2022-11-15T01:25:21;21.20;53.40
49711;DHT22;35602;44.534;18.696;2022-11-15T01:30:22;21.20;53.40
49711;DHT22;35602;44.534;18.696;2022-11-15T01:35:22;21.20;53.50
49711;DHT22;35602;44.534;18.696;2022-11-15T01:40:23;21.20;53.50
49711;DHT22;35602;44.534;18.696;2022-11-15T01:45:24;21.20;53.50
49711;DHT22;35602;44.534;18.696;2022-11-15T01:50:29;21.20;53.40
49711;DHT22;35602;44.534;18.696;2022-11-15T01:55:31;21.20;53.40
49711;DHT22;35602;44.534;18.696;2022-11-15T02:00:33;21.20;53.40
49711;DHT22;35602;44.534;18.696;2022-11-15T02:05:35;21.20;53.40
49711;DHT22;35602;44.534;18.696;2022-11-15T02:10:37;21.20;53.50
49711;DHT22;35602;44.534;18.696;2022-11-15T02:15:52;21.20;53.50
49711;DHT22;35602;44.534;18.696;2022-11-15T02:21:14;21.20;53.50
49711;DHT22;35602;44.534;18.696;2022-11-15T02:26:47;21.20;53.70
49711;DHT22;35602;44.534;18.696;2022-11-15T02:32:14;21.20;53.50
49711;DHT22;35602;44.534;18.696;2022-11-15T02:39:10;21.20;53.50
49711;DHT22;35602;44.534;18.696;2022-11-15T02:45:17;21.20;53.60
49711;DHT22;35602;44.534;18.696;2022-11-15T02:50:21;21.20;53.60
49711;DHT22;35602;44.534;18.696;2022-11-15T02:55:35;21.20;53.50
49711;DHT22;35602;44.534;18.696;2022-11-15T03:00:42;21.20;53.70
49711;DHT22;35602;44.534;18.696;2022-11-15T03:06:15;21.20;53.50
49711;DHT22;35602;44.534;18.696;2022-11-15T03:11:22;21.10;53.50
49711;DHT22;35602;44.534;18.696;2022-11-15T03:18:59;21.20;53.50
49711;DHT22;35602;44.534;18.696;2022-11-15T03:24:04;21.20;53.50
49711;DHT22;35602;44.534;18.696;2022-11-15T03:29:12;21.20;53.50
49711;DHT22;35602;44.534;18.696;2022-11-15T03:34:21;21.20;53.50
49711;DHT22;35602;44.534;18.696;2022-11-15T03:39:24;21.20;53.50
49711;DHT22;35602;44.534;18.696;2022-11-15T03:45:27;21.10;53.50
49711;DHT22;35602;44.534;18.696;2022-11-15T03:50:30;21.20;53.60
49711;DHT22;35602;44.534;18.696;2022-11-15T03:55:32;21.20;53.70
49711;DHT22;35602;44.534;18.696;2022-11-15T04:00:33;21.20;53.60
49711;DHT22;35602;44.534;18.696;2022-11-15T04:05:34;21.10;53.60
49711;DHT22;35602;44.534;18.696;2022-11-15T04:10:35;21.10;53.60
49711;DHT22;35602;44.534;18.696;2022-11-15T04:15:36;21.10;53.60
49711;DHT22;35602;44.534;18.696;2022-11-15T04:20:37;21.10;53.60
49711;DHT22;35602;44.534;18.696;2022-11-15T04:25:59;21.20;53.70
49711;DHT22;35602;44.534;18.696;2022-11-15T04:31:00;21.20;53.70
49711;DHT22;35602;44.534;18.696;2022-11-15T04:36:01;21.20;53.70
49711;DHT22;35602;44.534;18.696;2022-11-15T04:41:20;21.10;53.60
49711;DHT22;35602;44.534;18.696;2022-11-15T04:46:22;21.10;53.60
49711;DHT22;35602;44.534;18.696;2022-11-15T04:51:24;21.10;53.70
49711;DHT22;35602;44.534;18.696;2022-11-15T04:56:24;21.10;53.70
49711;DHT22;35602;44.534;18.696;2022-11-15T05:01:25;21.10;53.70
49711;DHT22;35602;44.534;18.696;2022-11-15T05:06:26;21.20;53.80
49711;DHT22;35602;44.534;18.696;2022-11-15T05:11:27;21.10;53.70
49711;DHT22;35602;44.534;18.696;2022-11-15T05:16:28;21.10;53.70
49711;DHT22;35602;44.534;18.696;2022-11-15T05:21:29;21.10;54.40
49711;DHT22;35602;44.534;18.696;2022-11-15T05:26:30;21.20;53.90
49711;DHT22;35602;44.534;18.696;2022-11-15T05:31:31;21.10;53.80
49711;DHT22;35602;44.534;18.696;2022-11-15T05:36:49;21.10;53.90
49711;DHT22;35602;44.534;18.696;2022-11-15T05:41:53;21.10;53.80
49711;DHT22;35602;44.534;18.696;2022-11-15T05:46:55;21.10;53.90
49711;DHT22;35602;44.534;18.696;2022-11-15T05:51:58;21.10;53.90
49711;DHT22;35602;44.534;18.696;2022-11-15T05:56:59;21.10;53.90
49711;DHT22;35602;44.534;18.696;2022-11-15T06:02:00;21.10;53.90
49711;DHT22;35602;44.534;18.696;2022-11-15T06:07:01;21.10;53.90
49711;DHT22;35602;44.534;18.696;2022-11-15T06:12:02;21.10;53.90
49711;DHT22;35602;44.534;18.696;2022-11-15T06:17:03;21.10;54.00
49711;DHT22;35602;44.534;18.696;2022-11-15T06:22:04;21.10;53.90
49711;DHT22;35602;44.534;18.696;2022-11-15T06:27:05;21.10;53.90
49711;DHT22;35602;44.534;18.696;2022-11-15T06:32:06;21.10;54.00
49711;DHT22;35602;44.534;18.696;2022-11-15T06:37:07;21.10;54.00
49711;DHT22;35602;44.534;18.696;2022-11-15T06:42:10;21.10;54.00
49711;DHT22;35602;44.534;18.696;2022-11-15T06:47:11;21.10;53.90
49711;DHT22;35602;44.534;18.696;2022-11-15T06:52:12;21.10;54.00
49711;DHT22;35602;44.534;18.696;2022-11-15T06:57:13;21.10;54.00
49711;DHT22;35602;44.534;18.696;2022-11-15T07:02:13;21.10;54.00
49711;DHT22;35602;44.534;18.696;2022-11-15T07:07:14;21.10;54.00
49711;DHT22;35602;44.534;18.696;2022-11-15T07:12:15;21.10;54.00
49711;DHT22;35602;44.534;18.696;2022-11-15T07:17:16;21.10;54.00
49711;DHT22;35602;44.534;18.696;2022-11-15T07:22:17;21.10;54.00
49711;DHT22;35602;44.534;18.696;2022-11-15T07:27:17;21.10;54.00
49711;DHT22;35602;44.534;18.696;2022-11-15T07:32:18;21.10;54.00
49711;DHT22;35602;44.534;18.696;2022-11-15T07:37:19;21.10;54.00
49711;DHT22;35602;44.534;18.696;2022-11-15T07:42:20;21.10;54.10
49711;DHT22;35602;44.534;18.696;2022-11-15T07:47:39;21.10;54.10
49711;DHT22;35602;44.534;18.696;2022-11-15T07:52:40;21.10;54.00
49711;DHT22;35602;44.534;18.696;2022-11-15T07:57:40;21.10;54.70
49711;DHT22;35602;44.534;18.696;2022-11-15T08:02:41;21.10;54.40
49711;DHT22;35602;44.534;18.696;2022-11-15T08:07:42;21.20;54.50
49711;DHT22;35602;44.534;18.696;2022-11-15T08:12:43;21.20;55.90
49711;DHT22;35602;44.534;18.696;2022-11-15T08:17:44;21.30;55.70
49711;DHT22;35602;44.534;18.696;2022-11-15T08:22:44;21.30;56.90
49711;DHT22;35602;44.534;18.696;2022-11-15T08:27:45;21.30;56.50
49711;DHT22;35602;44.534;18.696;2022-11-15T08:32:47;21.30;56.20
49711;DHT22;35602;44.534;18.696;2022-11-15T08:37:48;21.30;56.20
49711;DHT22;35602;44.534;18.696;2022-11-15T08:42:49;21.40;56.10
49711;DHT22;35602;44.534;18.696;2022-11-15T08:47:50;21.40;56.20
49711;DHT22;35602;44.534;18.696;2022-11-15T08:52:51;21.40;55.70
49711;DHT22;35602;44.534;18.696;2022-11-15T08:57:52;21.30;55.50
49711;DHT22;35602;44.534;18.696;2022-11-15T09:02:53;21.30;55.30
49711;DHT22;35602;44.534;18.696;2022-11-15T09:07:53;21.30;55.10
49711;DHT22;35602;44.534;18.696;2022-11-15T09:12:57;21.30;55.20
49711;DHT22;35602;44.534;18.696;2022-11-15T09:17:58;21.40;55.10
49711;DHT22;35602;44.534;18.696;2022-11-15T09:23:03;21.40;55.00
49711;DHT22;35602;44.534;18.696;2022-11-15T09:28:06;21.40;54.90
49711;DHT22;35602;44.534;18.696;2022-11-15T09:33:09;21.30;54.80
49711;DHT22;35602;44.534;18.696;2022-11-15T09:38:10;21.30;54.70
49711;DHT22;35602;44.534;18.696;2022-11-15T09:48:55;21.40;54.80
49711;DHT22;35602;44.534;18.696;2022-11-15T09:54:27;21.40;54.90
49711;DHT22;35602;44.534;18.696;2022-11-15T10:00:37;21.40;55.10
49711;DHT22;35602;44.534;18.696;2022-11-15T10:05:45;21.50;55.50
49711;DHT22;35602;44.534;18.696;2022-11-15T10:10:48;21.50;55.80
49711;DHT22;35602;44.534;18.696;2022-11-15T10:15:51;21.60;55.90
49711;DHT22;35602;44.534;18.696;2022-11-15T10:21:10;21.60;56.20
49711;DHT22;35602;44.534;18.696;2022-11-15T10:26:16;21.70;56.40
49711;DHT22;35602;44.534;18.696;2022-11-15T10:31:23;21.70;56.70
49711;DHT22;35602;44.534;18.696;2022-11-15T10:36:25;21.70;57.00
49711;DHT22;35602;44.534;18.696;2022-11-15T10:41:37;21.70;57.20
49711;DHT22;35602;44.534;18.696;2022-11-15T10:46:40;21.70;57.30
49711;DHT22;35602;44.534;18.696;2022-11-15T10:52:23;21.80;57.50
49711;DHT22;35602;44.534;18.696;2022-11-15T10:57:27;21.80;57.60
49711;DHT22;35602;44.534;18.696;2022-11-15T11:02:38;21.80;57.80
49711;DHT22;35602;44.534;18.696;2022-11-15T11:07:39;21.90;57.90
49711;DHT22;35602;44.534;18.696;2022-11-15T11:12:41;21.90;58.00
49711;DHT22;35602;44.534;18.696;2022-11-15T11:18:23;21.90;58.10
49711;DHT22;35602;44.534;18.696;2022-11-15T11:25:08;21.90;58.20
49711;DHT22;35602;44.534;18.696;2022-11-15T11:30:27;22.00;58.10
49711;DHT22;35602;44.534;18.696;2022-11-15T11:54:14;21.90;57.90
49711;DHT22;35602;44.534;18.696;2022-11-15T11:59:48;21.90;57.70
49711;DHT22;35602;44.534;18.696;2022-11-15T12:04:52;21.90;57.60
49711;DHT22;35602;44.534;18.696;2022-11-15T12:16:52;21.80;57.40
49711;DHT22;35602;44.534;18.696;2022-11-15T12:23:31;21.80;57.30
49711;DHT22;35602;44.534;18.696;2022-11-15T12:35:38;21.80;57.30
49711;DHT22;35602;44.534;18.696;2022-11-15T12:41:15;21.80;57.20
49711;DHT22;35602;44.534;18.696;2022-11-15T12:56:20;21.70;57.10
49711;DHT22;35602;44.534;18.696;2022-11-15T13:07:58;21.70;57.20
49711;DHT22;35602;44.534;18.696;2022-11-15T13:13:04;21.80;57.80
49711;DHT22;35602;44.534;18.696;2022-11-15T13:18:27;21.80;58.10
49711;DHT22;35602;44.534;18.696;2022-11-15T13:23:29;21.80;58.20
49711;DHT22;35602;44.534;18.696;2022-11-15T13:28:58;21.90;58.60
49711;DHT22;35602;44.534;18.696;2022-11-15T13:34:45;21.90;58.70
49711;DHT22;35602;44.534;18.696;2022-11-15T13:39:50;21.90;58.80
49711;DHT22;35602;44.534;18.696;2022-11-15T13:44:56;21.90;59.00
49711;DHT22;35602;44.534;18.696;2022-11-15T13:49:58;21.90;59.10
49711;DHT22;35602;44.534;18.696;2022-11-15T13:55:14;22.00;59.30
49711;DHT22;35602;44.534;18.696;2022-11-15T14:00:40;22.00;59.30
49711;DHT22;35602;44.534;18.696;2022-11-15T14:05:44;22.00;59.40
49711;DHT22;35602;44.534;18.696;2022-11-15T14:10:45;22.00;59.50
49711;DHT22;35602;44.534;18.696;2022-11-15T14:15:46;22.00;59.40
49711;DHT22;35602;44.534;18.696;2022-11-15T14:20:47;22.00;59.60
49711;DHT22;35602;44.534;18.696;2022-11-15T14:25:55;22.00;59.50
49711;DHT22;35602;44.534;18.696;2022-11-15T14:30:58;22.00;59.50
49711;DHT22;35602;44.534;18.696;2022-11-15T14:36:21;21.90;59.40
49711;DHT22;35602;44.534;18.696;2022-11-15T14:41:25;21.90;59.40
49711;DHT22;35602;44.534;18.696;2022-11-15T14:46:33;21.90;59.30
49711;DHT22;35602;44.534;18.696;2022-11-15T14:51:33;21.80;59.30
49711;DHT22;35602;44.534;18.696;2022-11-15T14:56:34;21.80;59.30
49711;DHT22;35602;44.534;18.696;2022-11-15T15:01:35;21.80;59.30
49711;DHT22;35602;44.534;18.696;2022-11-15T15:06:36;21.70;59.20
49711;DHT22;35602;44.534;18.696;2022-11-15T15:11:37;21.70;59.20
49711;DHT22;35602;44.534;18.696;2022-11-15T15:16:38;21.70;59.10
49711;DHT22;35602;44.534;18.696;2022-11-15T15:21:38;21.70;59.10
49711;DHT22;35602;44.534;18.696;2022-11-15T15:26:39;21.70;59.10
49711;DHT22;35602;44.534;18.696;2022-11-15T15:31:41;21.70;59.10
49711;DHT22;35602;44.534;18.696;2022-11-15T15:36:41;21.70;59.00
49711;DHT22;35602;44.534;18.696;2022-11-15T15:41:42;21.70;59.00
49711;DHT22;35602;44.534;18.696;2022-11-15T15:46:43;21.60;58.90
49711;DHT22;35602;44.534;18.696;2022-11-15T15:51:44;21.60;58.80
49711;DHT22;35602;44.534;18.696;2022-11-15T15:56:45;21.60;58.90
49711;DHT22;35602;44.534;18.696;2022-11-15T16:01:45;21.60;58.80
49711;DHT22;35602;44.534;18.696;2022-11-15T16:06:46;21.60;59.40
49711;DHT22;35602;44.534;18.696;2022-11-15T16:11:47;21.60;58.70
49711;DHT22;35602;44.534;18.696;2022-11-15T16:16:48;21.60;58.70
49711;DHT22;35602;44.534;18.696;2022-11-15T16:21:49;21.60;58.70
49711;DHT22;35602;44.534;18.696;2022-11-15T16:26:50;21.60;58.60
49711;DHT22;35602;44.534;18.696;2022-11-15T16:31:52;21.60;58.60
49711;DHT22;35602;44.534;18.696;2022-11-15T16:36:53;21.60;58.60
49711;DHT22;35602;44.534;18.696;2022-11-15T16:41:54;21.50;58.50
49711;DHT22;35602;44.534;18.696;2022-11-15T16:46:55;21.50;58.50
49711;DHT22;35602;44.534;18.696;2022-11-15T16:51:56;21.60;58.50
49711;DHT22;35602;44.534;18.696;2022-11-15T16:56:57;21.50;58.50
49711;DHT22;35602;44.534;18.696;2022-11-15T17:01:57;21.50;58.40
49711;DHT22;35602;44.534;18.696;2022-11-15T17:06:58;21.50;58.30
49711;DHT22;35602;44.534;18.696;2022-11-15T17:11:59;21.50;58.30
49711;DHT22;35602;44.534;18.696;2022-11-15T17:17:00;21.50;58.30
49711;DHT22;35602;44.534;18.696;2022-11-15T17:22:01;21.50;58.30
49711;DHT22;35602;44.534;18.696;2022-11-15T17:27:02;21.50;58.80
49711;DHT22;35602;44.534;18.696;2022-11-15T17:32:03;21.50;58.20
49711;DHT22;35602;44.534;18.696;2022-11-15T17:37:03;21.50;58.20
49711;DHT22;35602;44.534;18.696;2022-11-15T17:42:04;21.50;58.20
49711;DHT22;35602;44.534;18.696;2022-11-15T17:47:05;21.50;58.10
49711;DHT22;35602;44.534;18.696;2022-11-15T17:52:06;21.50;58.10
49711;DHT22;35602;44.534;18.696;2022-11-15T17:57:07;21.50;58.10
49711;DHT22;35602;44.534;18.696;2022-11-15T18:02:11;21.50;58.10
49711;DHT22;35602;44.534;18.696;2022-11-15T18:07:12;21.50;58.10
49711;DHT22;35602;44.534;18.696;2022-11-15T18:12:13;21.50;58.10
49711;DHT22;35602;44.534;18.696;2022-11-15T18:17:14;21.50;58.00
49711;DHT22;35602;44.534;18.696;2022-11-15T18:22:15;21.50;58.00
49711;DHT22;35602;44.534;18.696;2022-11-15T18:27:16;21.50;58.00
49711;DHT22;35602;44.534;18.696;2022-11-15T18:32:16;21.50;58.00
49711;DHT22;35602;44.534;18.696;2022-11-15T18:37:17;21.50;57.90
49711;DHT22;35602;44.534;18.696;2022-11-15T18:42:18;21.50;57.90
49711;DHT22;35602;44.534;18.696;2022-11-15T18:47:19;21.50;57.90
49711;DHT22;35602;44.534;18.696;2022-11-15T18:52:19;21.50;57.90
49711;DHT22;35602;44.534;18.696;2022-11-15T18:57:20;21.50;57.90
49711;DHT22;35602;44.534;18.696;2022-11-15T19:02:21;21.50;57.90
49711;DHT22;35602;44.534;18.696;2022-11-15T19:07:22;21.40;57.80
49711;DHT22;35602;44.534;18.696;2022-11-15T19:12:23;21.50;57.80
49711;DHT22;35602;44.534;18.696;2022-11-15T19:17:23;21.50;57.80
49711;DHT22;35602;44.534;18.696;2022-11-15T19:22:24;21.50;57.90
49711;DHT22;35602;44.534;18.696;2022-11-15T19:27:25;21.50;57.70
49711;DHT22;35602;44.534;18.696;2022-11-15T19:32:27;21.40;57.70
49711;DHT22;35602;44.534;18.696;2022-11-15T19:37:27;21.40;57.70
49711;DHT22;35602;44.534;18.696;2022-11-15T19:42:28;21.40;57.60
49711;DHT22;35602;44.534;18.696;2022-11-15T19:47:29;21.40;57.60
49711;DHT22;35602;44.534;18.696;2022-11-15T19:52:30;21.40;57.60
49711;DHT22;35602;44.534;18.696;2022-11-15T19:57:31;21.40;57.70
49711;DHT22;35602;44.534;18.696;2022-11-15T20:02:32;21.40;57.70
49711;DHT22;35602;44.534;18.696;2022-11-15T20:07:33;21.40;57.60
49711;DHT22;35602;44.534;18.696;2022-11-15T20:12:33;21.40;57.60
49711;DHT22;35602;44.534;18.696;2022-11-15T20:17:34;21.40;57.60
49711;DHT22;35602;44.534;18.696;2022-11-15T20:22:35;21.40;57.50
49711;DHT22;35602;44.534;18.696;2022-11-15T20:27:36;21.40;57.50
49711;DHT22;35602;44.534;18.696;2022-11-15T20:32:39;21.40;57.50
49711;DHT22;35602;44.534;18.696;2022-11-15T20:37:40;21.40;57.50
49711;DHT22;35602;44.534;18.696;2022-11-15T20:42:41;21.40;58.10
49711;DHT22;35602;44.534;18.696;2022-11-15T20:47:42;21.40;57.40
49711;DHT22;35602;44.534;18.696;2022-11-15T20:52:43;21.40;57.40
49711;DHT22;35602;44.534;18.696;2022-11-15T20:57:44;21.40;57.40
49711;DHT22;35602;44.534;18.696;2022-11-15T21:02:47;21.40;57.30
49711;DHT22;35602;44.534;18.696;2022-11-15T21:07:48;21.40;58.00
49711;DHT22;35602;44.534;18.696;2022-11-15T21:12:49;21.40;57.30
49711;DHT22;35602;44.534;18.696;2022-11-15T21:17:50;21.40;57.30
49711;DHT22;35602;44.534;18.696;2022-11-15T21:22:51;21.40;57.30
49711;DHT22;35602;44.534;18.696;2022-11-15T21:27:52;21.40;57.20
49711;DHT22;35602;44.534;18.696;2022-11-15T21:32:52;21.40;57.10
49711;DHT22;35602;44.534;18.696;2022-11-15T21:37:53;21.40;57.10
49711;DHT22;35602;44.534;18.696;2022-11-15T21:42:54;21.40;57.10
49711;DHT22;35602;44.534;18.696;2022-11-15T21:47:55;21.30;57.00
49711;DHT22;35602;44.534;18.696;2022-11-15T21:52:56;21.40;57.10
49711;DHT22;35602;44.534;18.696;2022-11-15T21:57:56;21.30;57.00
49711;DHT22;35602;44.534;18.696;2022-11-15T22:02:57;21.30;56.90
49711;DHT22;35602;44.534;18.696;2022-11-15T22:07:58;21.30;56.90
49711;DHT22;35602;44.534;18.696;2022-11-15T22:13:00;21.30;56.90
49711;DHT22;35602;44.534;18.696;2022-11-15T22:18:01;21.30;56.80
49711;DHT22;35602;44.534;18.696;2022-11-15T22:23:02;21.30;56.90
49711;DHT22;35602;44.534;18.696;2022-11-15T22:28:03;21.30;56.80
49711;DHT22;35602;44.534;18.696;2022-11-15T22:33:04;21.30;56.70
49711;DHT22;35602;44.534;18.696;2022-11-15T22:38:05;21.30;56.70
49711;DHT22;35602;44.534;18.696;2022-11-15T22:43:07;21.30;56.60
49711;DHT22;35602;44.534;18.696;2022-11-15T22:48:08;21.30;56.70
49711;DHT22;35602;44.534;18.696;2022-11-15T22:53:09;21.30;56.60
49711;DHT22;35602;44.534;18.696;2022-11-15T22:58:10;21.30;56.60
49711;DHT22;35602;44.534;18.696;2022-11-15T23:03:10;21.30;56.50
49711;DHT22;35602;44.534;18.696;2022-11-15T23:08:12;21.30;56.50
49711;DHT22;35602;44.534;18.696;2022-11-15T23:13:13;21.30;56.50
49711;DHT22;35602;44.534;18.696;2022-11-15T23:18:17;21.30;56.50
49711;DHT22;35602;44.534;18.696;2022-11-15T23:23:18;21.30;56.40
49711;DHT22;35602;44.534;18.696;2022-11-15T23:28:19;21.30;56.50
49711;DHT22;35602;44.534;18.696;2022-11-15T23:33:20;21.30;56.40
49711;DHT22;35602;44.534;18.696;2022-11-15T23:38:40;21.30;56.40
49711;DHT22;35602;44.534;18.696;2022-11-15T23:43:41;21.30;56.40
49711;DHT22;35602;44.534;18.696;2022-11-15T23:48:41;21.30;57.00
49711;DHT22;35602;44.534;18.696;2022-11-15T23:53:42;21.30;56.50
49711;DHT22;35602;44.534;18.696;2022-11-15T23:58:44;21.30;56.30
